Time;durP1;ratioP1;P1;durP2;ratioP2;P2;SDS_P1;SDS_P2;PMS_P1;PMS_P2;Temp;Humidity;BMP_temperature;BMP_pressure;BME280_temperature;BME280_humidity;BME280_pressure;Samples;Min_cycle;Max_cycle;Signal;HPM_P1;HPM_P2
2022/10/15 00:01:10;;;;;;;25.05;16.67;;;;;;;15.70;64.77;100687.81;4948334;28;122325;-72
2022/10/15 00:03:39;;;;;;;29.92;17.15;;;;;;;15.67;64.79;100686.22;4948241;28;124490;-72
2022/10/15 00:06:09;;;;;;;29.35;18.20;;;;;;;15.62;64.74;100683.00;4966497;28;119298;-72
2022/10/15 00:08:37;;;;;;;29.50;18.23;;;;;;;15.60;64.64;100676.91;4966931;28;120626;-72
2022/10/15 00:11:11;;;;;;;30.75;18.05;;;;;;;15.55;64.88;100682.53;4947924;28;123284;-72
2022/10/15 00:13:39;;;;;;;33.47;18.88;;;;;;;15.54;64.82;100685.34;4964781;28;124958;-72
2022/10/15 00:16:09;;;;;;;30.67;18.50;;;;;;;15.52;64.87;100688.13;4947662;28;118215;-72
2022/10/15 00:18:37;;;;;;;22.13;16.17;;;;;;;15.50;64.90;100694.50;4966295;28;119303;-72
2022/10/15 00:21:06;;;;;;;23.67;15.43;;;;;;;15.46;64.74;100687.66;4966686;28;124670;-72
2022/10/15 00:23:34;;;;;;;19.33;13.73;;;;;;;15.43;64.67;100693.22;4964197;28;124258;-72
2022/10/15 00:26:02;;;;;;;18.27;13.70;;;;;;;15.37;64.58;100684.66;4965939;28;121176;-72
2022/10/15 00:28:30;;;;;;;22.77;14.85;;;;;;;15.33;64.50;100690.31;4949649;28;119162;-72
2022/10/15 00:31:02;;;;;;;23.42;15.55;;;;;;;15.28;64.45;100690.63;4964266;28;124109;-72
2022/10/15 00:33:35;;;;;;;26.67;16.17;;;;;;;15.25;64.57;100690.81;4949214;28;124615;-72
2022/10/15 00:36:06;;;;;;;22.85;15.57;;;;;;;15.21;64.40;100691.16;4948972;28;118601;-73
2022/10/15 00:38:34;;;;;;;24.90;15.68;;;;;;;15.17;64.55;100693.16;4947190;28;119219;-72
2022/10/15 00:41:04;;;;;;;25.75;16.83;;;;;;;15.13;64.45;100689.00;4948120;28;123270;-72
2022/10/15 00:43:52;;;;;;;30.00;17.52;;;;;;;15.08;64.46;100699.09;4946248;28;124041;-72
2022/10/15 00:46:34;;;;;;;27.20;16.40;;;;;;;15.04;64.52;100697.59;4966462;28;119883;-72
2022/10/15 00:49:12;;;;;;;27.10;16.67;;;;;;;15.02;64.43;100694.19;4947440;28;118765;-72
2022/10/15 00:51:43;;;;;;;21.13;15.50;;;;;;;14.98;64.34;100693.53;4964637;28;123417;-72
2022/10/15 00:54:11;;;;;;;21.33;15.38;;;;;;;14.95;64.56;100699.91;4963243;28;123595;-72
2022/10/15 00:56:40;;;;;;;24.92;15.70;;;;;;;14.92;64.44;100705.44;4932054;28;118522;-72
2022/10/15 00:59:08;;;;;;;21.45;14.90;;;;;;;14.89;64.48;100702.97;4947179;28;118860;-72
2022/10/15 01:01:35;;;;;;;26.35;15.50;;;;;;;14.87;64.47;100696.88;4966593;28;124902;-72
2022/10/15 01:04:04;;;;;;;26.00;15.50;;;;;;;14.84;64.49;100694.41;4947724;28;123008;-72
2022/10/15 01:06:31;;;;;;;22.90;15.32;;;;;;;14.84;64.57;100701.56;4962085;28;118640;-72
2022/10/15 01:08:59;;;;;;;29.88;17.92;;;;;;;14.82;64.57;100698.16;4948287;28;118377;-72
2022/10/15 01:11:41;;;;;;;26.52;16.73;;;;;;;14.80;64.74;100695.56;4965765;28;123922;-72
2022/10/15 01:14:51;;;;;;;31.10;18.40;;;;;;;14.79;64.85;100701.88;4963080;28;124541;-72
2022/10/15 01:17:42;;;;;;;31.67;18.67;;;;;;;14.80;64.91;100695.56;4957342;28;121123;-72
2022/10/15 01:20:42;;;;;;;36.33;19.33;;;;;;;14.81;65.13;100697.31;4945376;28;119679;-72
2022/10/15 01:23:30;;;;;;;40.15;21.23;;;;;;;14.82;65.42;100683.00;4961276;28;123753;-72
2022/10/15 01:26:12;;;;;;;36.70;20.70;;;;;;;14.85;65.47;100682.81;4944275;28;123064;-72
2022/10/15 01:28:52;;;;;;;41.38;22.00;;;;;;;14.89;65.62;100673.63;4962615;28;119276;-72
2022/10/15 01:31:39;;;;;;;44.40;23.45;;;;;;;14.94;65.80;100671.53;4961993;28;119349;-72
2022/10/15 01:34:21;;;;;;;42.78;24.15;;;;;;;14.98;66.03;100662.38;4964575;28;123010;-72
2022/10/15 01:37:12;;;;;;;45.08;26.25;;;;;;;15.04;66.06;100660.25;4948044;28;122990;-72
2022/10/15 01:39:53;;;;;;;46.47;25.30;;;;;;;15.10;66.33;100659.84;4960677;28;118469;-72
2022/10/15 01:42:31;;;;;;;51.35;26.15;;;;;;;15.14;66.29;100656.00;4948287;28;118195;-72
2022/10/15 01:45:04;;;;;;;52.88;28.23;;;;;;;15.21;66.62;100657.31;4947324;28;123017;-72
2022/10/15 01:47:52;;;;;;;54.10;29.85;;;;;;;15.27;66.71;100654.22;4957945;28;123506;-72
2022/10/15 01:50:24;;;;;;;53.15;29.27;;;;;;;15.35;66.97;100648.34;4947611;28;118514;-72
2022/10/15 01:52:54;;;;;;;54.90;30.67;;;;;;;15.41;67.09;100652.41;4943929;28;118376;-73
2022/10/15 01:55:24;;;;;;;53.10;30.52;;;;;;;15.48;67.18;100653.72;4948696;28;123601;-72
2022/10/15 01:57:56;;;;;;;53.22;30.98;;;;;;;15.55;67.09;100655.00;4965830;28;123623;-72
2022/10/15 02:00:24;;;;;;;55.33;31.08;;;;;;;15.63;67.28;100652.66;4949259;28;120132;-72
2022/10/15 02:02:51;;;;;;;54.30;31.40;;;;;;;15.69;67.36;100646.91;4967309;28;118341;-72
2022/10/15 02:05:28;;;;;;;50.70;30.63;;;;;;;15.75;67.39;100646.50;4968128;28;124138;-72
2022/10/15 02:08:06;;;;;;;56.78;30.98;;;;;;;15.82;67.36;100640.72;4948673;28;123864;-72
2022/10/15 02:10:52;;;;;;;47.42;29.70;;;;;;;15.88;67.32;100634.94;4967536;28;120238;-72
2022/10/15 02:13:40;;;;;;;;;;;;;;;15.90;66.90;100633.03;4965200;28;119943;-72
2022/10/15 02:16:20;;;;;;;47.50;29.17;;;;;;;15.98;67.20;100643.19;4956125;28;123435;-72
2022/10/15 02:19:13;;;;;;;44.17;28.63;;;;;;;16.02;67.18;100636.66;4947297;28;124068;-72
2022/10/15 02:21:46;;;;;;;48.40;28.33;;;;;;;16.06;67.19;100632.78;4961254;28;119474;-72
2022/10/15 02:24:24;;;;;;;46.53;28.15;;;;;;;16.09;67.23;100633.44;4966086;28;119027;-72
2022/10/15 02:26:53;;;;;;;47.08;28.10;;;;;;;16.13;67.28;100634.91;4942632;28;123039;-72
2022/10/15 02:29:25;;;;;;;46.28;27.63;;;;;;;16.18;67.20;100631.03;4968180;28;124228;-72
2022/10/15 02:31:56;;;;;;;41.42;27.50;;;;;;;16.21;67.41;100625.50;4963075;28;118534;-72
2022/10/15 02:34:28;;;;;;;42.40;27.73;;;;;;;16.24;67.39;100625.28;4952601;28;118512;-72
2022/10/15 02:37:00;;;;;;;40.15;27.15;;;;;;;16.27;67.15;100617.88;4956952;28;122439;-72
2022/10/15 02:39:27;;;;;;;38.47;27.02;;;;;;;16.31;67.18;100621.19;4974221;28;123675;-72
2022/10/15 02:41:56;;;;;;;38.50;26.38;;;;;;;16.33;67.24;100619.25;4971358;28;119154;-72
2022/10/15 02:44:24;;;;;;;43.70;28.00;;;;;;;16.37;67.14;100620.75;4967116;28;120995;-72
2022/10/15 02:46:51;;;;;;;38.45;26.50;;;;;;;16.40;67.19;100620.50;4950284;28;123356;-72
2022/10/15 02:49:19;;;;;;;37.88;26.50;;;;;;;16.43;66.95;100614.09;4949617;28;123178;-72
2022/10/15 02:51:49;;;;;;;38.25;26.30;;;;;;;16.44;67.04;100605.94;4950125;28;118944;-72
2022/10/15 02:54:16;;;;;;;43.88;26.85;;;;;;;16.45;66.65;100607.66;4968548;28;119275;-72
2022/10/15 02:56:46;;;;;;;38.35;27.10;;;;;;;16.48;66.98;100602.09;4949265;28;123508;-72
2022/10/15 02:59:14;;;;;;;38.75;27.00;;;;;;;16.50;66.98;100605.50;4951782;28;123624;-72
2022/10/15 03:01:41;;;;;;;37.38;26.17;;;;;;;16.52;67.00;100603.59;4968743;28;119876;-72
2022/10/15 03:04:09;;;;;;;37.80;26.52;;;;;;;16.54;67.05;100596.28;4951977;28;119558;-72
2022/10/15 03:06:36;;;;;;;39.95;26.33;;;;;;;16.55;66.96;100592.63;4966659;28;124174;-72
2022/10/15 03:09:04;;;;;;;43.88;26.55;;;;;;;16.57;66.82;100599.72;4944041;28;122972;-72
2022/10/15 03:11:32;;;;;;;38.05;25.60;;;;;;;16.59;67.01;100587.06;4933880;28;118600;-72
2022/10/15 03:14:00;;;;;;;35.22;25.33;;;;;;;16.60;66.95;100578.09;4942610;28;118944;-72
2022/10/15 03:16:30;;;;;;;39.55;25.33;;;;;;;16.60;66.74;100578.09;4948905;28;123683;-72
2022/10/15 03:18:57;;;;;;;35.80;25.63;;;;;;;16.60;66.74;100578.09;4950044;28;123911;-72
2022/10/15 03:21:24;;;;;;;37.30;25.63;;;;;;;16.60;66.75;100581.63;4949772;28;118253;-72
2022/10/15 03:23:57;;;;;;;38.58;25.33;;;;;;;16.60;66.45;100578.09;4949442;28;119003;-72
2022/10/15 03:26:24;;;;;;;35.13;24.90;;;;;;;16.60;66.34;100578.09;4967611;28;124004;-72
2022/10/15 03:28:51;;;;;;;41.15;26.00;;;;;;;16.59;66.31;100576.38;4949296;28;123451;-72
2022/10/15 03:31:31;;;;;;;35.05;24.70;;;;;;;16.56;66.16;100582.81;4949406;28;119052;-72
2022/10/15 03:34:02;;;;;;;37.15;24.85;;;;;;;16.54;66.26;100574.91;4945683;28;118689;-71
2022/10/15 03:36:29;;;;;;;40.63;25.52;;;;;;;16.52;66.15;100584.88;4948673;28;123395;-70
2022/10/15 03:38:57;;;;;;;43.90;26.10;;;;;;;16.48;66.17;100580.72;4948908;28;122597;-70
2022/10/15 03:41:24;;;;;;;37.88;25.25;;;;;;;16.46;66.15;100581.78;4965758;28;119172;-70
2022/10/15 03:43:52;;;;;;;39.63;26.40;;;;;;;16.45;66.17;100580.94;4949568;28;118244;-70
2022/10/15 03:46:19;;;;;;;34.78;25.20;;;;;;;16.43;66.14;100588.22;4946432;28;123183;-70
2022/10/15 03:48:49;;;;;;;38.58;25.50;;;;;;;16.41;66.28;100575.94;4944220;28;123165;-70
2022/10/15 03:51:17;;;;;;;41.42;26.67;;;;;;;16.41;66.19;100584.81;4946347;28;120184;-70
2022/10/15 03:53:54;;;;;;;43.85;27.52;;;;;;;16.39;66.41;100576.06;4949010;28;119785;-70
2022/10/15 03:56:21;;;;;;;41.00;26.42;;;;;;;16.39;66.40;100576.06;4946861;28;123741;-70
2022/10/15 03:58:48;;;;;;;42.05;26.48;;;;;;;16.39;66.45;100576.06;4964772;28;122574;-70
2022/10/15 04:01:17;;;;;;;43.45;26.58;;;;;;;16.39;66.24;100576.06;4948427;28;119145;-70
2022/10/15 04:03:44;;;;;;;38.80;26.00;;;;;;;16.39;66.45;100581.41;4945276;28;118873;-70
2022/10/15 04:06:15;;;;;;;40.63;26.55;;;;;;;16.38;66.39;100579.69;4946096;28;123265;-70
2022/10/15 04:08:42;;;;;;;42.72;27.08;;;;;;;16.38;66.49;100585.03;4966833;28;124234;-70
2022/10/15 04:11:22;;;;;;;43.47;27.50;;;;;;;16.38;66.52;100570.81;4949080;28;119387;-70
2022/10/15 04:13:59;;;;;;;50.58;27.63;;;;;;;16.38;66.50;100568.97;4949006;28;119680;-71
2022/10/15 04:16:26;;;;;;;41.95;27.65;;;;;;;16.38;66.68;100568.13;4947602;28;123184;-70
2022/10/15 04:18:54;;;;;;;43.92;27.77;;;;;;;16.38;66.65;100562.78;4963731;28;123719;-70
2022/10/15 04:21:21;;;;;;;44.28;26.77;;;;;;;16.37;66.55;100572.63;4964656;28;118711;-70
2022/10/15 04:23:55;;;;;;;43.58;27.42;;;;;;;16.38;66.81;100563.63;4948921;28;118375;-70
2022/10/15 04:26:28;;;;;;;44.90;27.48;;;;;;;16.39;66.90;100572.50;4948256;28;123239;-70
2022/10/15 04:28:58;;;;;;;50.70;28.05;;;;;;;16.41;66.65;100587.47;4946586;28;124046;-71
2022/10/15 04:31:26;;;;;;;43.30;27.27;;;;;;;16.42;66.78;100581.16;4947721;28;118402;-70
2022/10/15 04:33:53;;;;;;;45.30;27.88;;;;;;;16.45;66.87;100577.41;4947480;28;118931;-70
2022/10/15 04:36:20;;;;;;;49.05;27.52;;;;;;;16.46;66.72;100585.34;4948539;28;124000;-70
2022/10/15 04:39:01;;;;;;;47.53;27.42;;;;;;;16.49;66.90;100581.56;4948003;28;123731;-70
2022/10/15 04:41:34;;;;;;;48.40;27.67;;;;;;;16.51;66.96;100591.16;4965764;28;120401;-70
2022/10/15 04:44:08;;;;;;;48.80;26.52;;;;;;;16.52;67.06;100592.88;4933561;28;119178;-70
2022/10/15 04:46:37;;;;;;;46.15;28.98;;;;;;;16.53;66.94;100583.88;4946061;28;123717;-70
2022/10/15 04:49:27;;;;;;;45.80;27.08;;;;;;;16.55;66.82;100581.09;4946079;28;123452;-70
2022/10/15 04:51:54;;;;;;;45.17;27.65;;;;;;;16.56;67.09;100585.50;4930168;28;119733;-70
2022/10/15 04:54:40;;;;;;;44.97;27.27;;;;;;;16.58;66.96;100585.38;4965076;28;118561;-70
2022/10/15 04:57:07;;;;;;;43.33;26.33;;;;;;;16.60;66.90;100578.09;4948477;28;123073;-70
2022/10/15 04:59:34;;;;;;;50.60;28.35;;;;;;;16.60;67.16;100578.09;4949812;28;123103;-70
2022/10/15 05:02:19;;;;;;;47.72;28.10;;;;;;;16.61;67.02;100579.78;4947964;28;119520;-70
2022/10/15 05:04:55;;;;;;;48.22;26.50;;;;;;;16.64;67.11;100574.22;4948831;28;119230;-70
2022/10/15 05:07:22;;;;;;;58.08;28.33;;;;;;;16.65;66.88;100573.25;4947477;28;124066;-70
2022/10/15 05:09:51;;;;;;;52.90;28.60;;;;;;;16.64;67.11;100569.72;4947666;28;124036;-73
2022/10/15 05:12:19;;;;;;;52.33;29.65;;;;;;;16.66;67.08;100577.63;4947082;28;118432;-70
2022/10/15 05:14:46;;;;;;;51.90;29.58;;;;;;;16.69;67.08;100588.13;4948283;28;118865;-70
2022/10/15 05:17:19;;;;;;;51.55;29.23;;;;;;;16.70;67.09;100579.94;4947890;28;123474;-70
2022/10/15 05:19:47;;;;;;;53.67;30.75;;;;;;;16.71;67.23;100575.47;4947802;28;123940;-73
2022/10/15 05:22:19;;;;;;;54.67;30.73;;;;;;;16.71;67.29;100575.47;4948570;28;119144;-72
2022/10/15 05:24:53;;;;;;;60.40;31.83;;;;;;;16.73;67.23;100578.88;4949146;28;118706;-72
2022/10/15 05:27:25;;;;;;;51.90;31.40;;;;;;;16.73;67.35;100584.22;4948052;28;123517;-72
2022/10/15 05:29:52;;;;;;;67.63;31.92;;;;;;;16.74;67.18;100580.56;4950814;28;123634;-70
2022/10/15 05:32:22;;;;;;;63.40;32.05;;;;;;;16.76;67.27;100578.63;4950309;28;119461;-70
2022/10/15 05:34:50;;;;;;;61.75;32.95;;;;;;;16.77;67.34;100580.34;4951251;28;119762;-70
2022/10/15 05:37:17;;;;;;;67.28;31.80;;;;;;;16.79;67.35;100582.91;4948971;28;123351;-70
2022/10/15 05:39:44;;;;;;;57.05;31.00;;;;;;;16.79;67.33;100589.13;4951774;28;123226;-70
2022/10/15 05:42:11;;;;;;;62.30;31.95;;;;;;;16.80;67.49;100585.47;4969116;28;119937;-70
2022/10/15 05:44:45;;;;;;;64.35;32.10;;;;;;;16.82;67.45;100593.38;4935013;28;118938;-71
2022/10/15 05:47:12;;;;;;;58.85;31.20;;;;;;;16.83;67.50;100601.31;4969077;28;123305;-73
2022/10/15 05:49:41;;;;;;;60.13;31.55;;;;;;;16.82;67.47;100591.59;4932933;28;122865;-73
2022/10/15 05:52:20;;;;;;;61.42;30.02;;;;;;;16.83;67.57;100595.13;4949059;28;118652;-71
2022/10/15 05:55:13;;;;;;;56.25;29.30;;;;;;;16.83;67.47;100600.47;4950755;28;118561;-71
2022/10/15 05:57:40;;;;;;;61.50;30.25;;;;;;;16.83;67.75;100590.63;4947861;28;124123;-72
2022/10/15 06:00:07;;;;;;;55.45;28.95;;;;;;;16.83;67.55;100590.63;4967126;28;123762;-74
2022/10/15 06:02:37;;;;;;;50.83;27.48;;;;;;;16.85;67.37;100594.03;4952312;28;119605;-72
2022/10/15 06:05:05;;;;;;;54.88;28.85;;;;;;;16.86;67.46;100603.78;4966825;28;118678;-72
2022/10/15 06:07:32;;;;;;;47.90;27.77;;;;;;;16.88;67.45;100599.16;4964604;28;123989;-72
2022/10/15 06:10:04;;;;;;;46.35;26.60;;;;;;;16.89;67.37;100595.50;4962820;28;124035;-72
2022/10/15 06:12:33;;;;;;;49.45;25.98;;;;;;;16.91;67.40;100593.59;4949669;28;118888;-72
2022/10/15 06:15:00;;;;;;;47.10;26.15;;;;;;;16.94;67.33;100592.50;4947697;28;118099;-72
2022/10/15 06:17:27;;;;;;;45.25;25.80;;;;;;;16.97;67.14;100586.03;4968500;28;123830;-72
2022/10/15 06:19:54;;;;;;;45.53;26.10;;;;;;;16.98;67.10;100579.72;4952995;28;123428;-72
2022/10/15 06:22:21;;;;;;;43.53;25.75;;;;;;;17.02;67.23;100581.19;4965336;28;120122;-72
2022/10/15 06:24:48;;;;;;;44.25;24.20;;;;;;;17.03;67.28;100580.25;4968934;28;121181;-73
2022/10/15 06:27:15;;;;;;;38.97;24.38;;;;;;;17.05;67.19;100578.31;4968531;28;123857;-73
2022/10/15 06:29:42;;;;;;;39.63;24.70;;;;;;;17.07;67.12;100576.34;4968201;28;124046;-73
2022/10/15 06:32:10;;;;;;;39.00;24.20;;;;;;;17.09;66.95;100585.13;4968336;28;119001;-73
2022/10/15 06:34:42;;;;;;;39.55;25.25;;;;;;;17.09;66.94;100580.59;4966091;28;119292;-73
2022/10/15 06:37:09;;;;;;;41.05;25.05;;;;;;;17.10;66.98;100587.69;4966716;28;123827;-73
2022/10/15 06:39:36;;;;;;;39.53;23.15;;;;;;;17.12;67.02;100595.56;4968783;28;124536;-73
2022/10/15 06:42:03;;;;;;;37.35;23.70;;;;;;;17.14;67.02;100593.66;4967387;28;120405;-72
2022/10/15 06:44:40;;;;;;;38.38;22.92;;;;;;;17.13;67.04;100592.78;4951118;28;118932;-73
2022/10/15 06:47:08;;;;;;;33.50;21.95;;;;;;;17.14;66.98;100588.31;4948200;28;123242;-73
2022/10/15 06:49:35;;;;;;;33.75;21.85;;;;;;;17.16;66.99;100588.16;4950552;28;124579;-73
2022/10/15 06:52:02;;;;;;;35.75;20.70;;;;;;;17.18;66.96;100594.25;4950187;28;118605;-73
2022/10/15 06:54:29;;;;;;;33.65;20.98;;;;;;;17.19;66.88;100596.81;4950473;28;118602;-73
2022/10/15 06:56:56;;;;;;;33.58;21.30;;;;;;;17.20;66.80;100593.19;4967671;28;125094;-73
2022/10/15 06:59:23;;;;;;;32.92;21.17;;;;;;;17.21;66.83;100594.88;4967656;28;123869;-73
2022/10/15 07:01:53;;;;;;;33.30;21.13;;;;;;;17.23;66.90;100587.56;4965783;28;119399;-73
2022/10/15 07:04:22;;;;;;;35.25;21.27;;;;;;;17.25;66.88;100585.66;4966939;28;118863;-73
2022/10/15 07:06:49;;;;;;;34.95;21.23;;;;;;;17.26;66.75;100590.00;4964906;28;124068;-73
2022/10/15 07:09:19;;;;;;;33.05;21.13;;;;;;;17.26;66.77;100587.34;4967566;28;123969;-73
2022/10/15 07:11:46;;;;;;;34.33;20.83;;;;;;;17.28;66.88;100582.72;4967377;28;120381;-73
2022/10/15 07:14:13;;;;;;;32.35;20.10;;;;;;;17.30;66.91;100593.31;4967807;28;119784;-73
2022/10/15 07:16:40;;;;;;;31.08;20.20;;;;;;;17.30;66.84;100583.44;4968033;28;126910;-73
2022/10/15 07:19:07;;;;;;;33.78;20.50;;;;;;;17.34;66.89;100593.94;4950631;28;124297;-73
2022/10/15 07:21:34;;;;;;;34.78;20.35;;;;;;;17.38;66.83;100596.25;4934202;28;118499;-73
2022/10/15 07:24:01;;;;;;;31.00;20.35;;;;;;;17.41;66.86;100595.16;4946281;28;119753;-74
2022/10/15 07:26:30;;;;;;;32.35;21.10;;;;;;;17.44;66.74;100597.59;4967209;28;124030;-73
2022/10/15 07:29:02;;;;;;;31.50;21.40;;;;;;;17.45;66.59;100601.97;4965593;28;123230;-73
2022/10/15 07:31:29;;;;;;;34.53;21.20;;;;;;;17.48;66.65;100596.41;4966753;28;120123;-74
2022/10/15 07:33:56;;;;;;;32.88;21.45;;;;;;;17.49;66.65;100598.09;4950255;28;118812;-73
2022/10/15 07:36:25;;;;;;;33.35;20.90;;;;;;;17.51;66.57;100594.31;4966888;28;124802;-73
2022/10/15 07:38:52;;;;;;;32.35;21.30;;;;;;;17.54;66.63;100582.53;4967282;28;123858;-73
2022/10/15 07:41:19;;;;;;;31.10;20.30;;;;;;;17.56;66.52;100580.56;4949439;28;117485;-73
2022/10/15 07:43:46;;;;;;;33.33;20.00;;;;;;;17.56;66.38;100580.56;4967940;28;118810;-73
2022/10/15 07:46:13;;;;;;;30.10;19.90;;;;;;;17.58;66.42;100586.66;4949231;28;123353;-73
2022/10/15 07:48:40;;;;;;;30.48;20.10;;;;;;;17.59;66.37;100577.63;4950014;28;122877;-73
2022/10/15 07:51:09;;;;;;;37.65;20.70;;;;;;;17.61;66.43;100575.72;4964809;28;119302;-73
2022/10/15 07:53:36;;;;;;;32.38;20.52;;;;;;;17.63;66.53;100570.22;4966497;28;119925;-73
2022/10/15 07:56:09;;;;;;;33.92;21.90;;;;;;;17.66;66.61;100573.50;4966698;28;124836;-73
2022/10/15 07:58:37;;;;;;;31.77;20.17;;;;;;;17.69;66.50;100559.88;4965121;28;123866;-73
2022/10/15 08:01:06;;;;;;;34.40;20.75;;;;;;;17.73;66.37;100563.16;4968994;28;119861;-73
2022/10/15 08:03:34;;;;;;;34.08;20.88;;;;;;;17.77;66.57;100559.25;4950886;28;120263;-73
2022/10/15 08:06:06;;;;;;;32.90;21.00;;;;;;;17.81;66.34;100563.41;4932866;28;123734;-73
2022/10/15 08:08:35;;;;;;;33.92;21.58;;;;;;;17.85;66.24;100566.72;4966911;28;123943;-73
2022/10/15 08:11:11;;;;;;;33.20;20.70;;;;;;;17.88;66.53;100571.84;4927368;28;118164;-73
2022/10/15 08:13:40;;;;;;;31.90;20.13;;;;;;;17.90;66.30;100565.38;4966851;28;119286;-73
2022/10/15 08:16:09;;;;;;;33.00;20.73;;;;;;;17.92;66.28;100573.28;4950623;28;124452;-73
2022/10/15 08:18:37;;;;;;;30.35;19.95;;;;;;;17.94;66.36;100571.34;4968204;28;123603;-73
2022/10/15 08:21:05;;;;;;;33.67;20.48;;;;;;;17.98;66.30;100556.72;4950390;28;119570;-73
2022/10/15 08:23:33;;;;;;;35.00;20.38;;;;;;;18.03;66.32;100559.88;4966610;28;119024;-73
2022/10/15 08:26:01;;;;;;;29.40;19.75;;;;;;;18.07;66.28;100555.97;4947821;28;123723;-73
2022/10/15 08:28:29;;;;;;;27.52;19.00;;;;;;;18.13;66.38;100559.97;4967538;28;124161;-73
2022/10/15 08:30:57;;;;;;;29.08;19.67;;;;;;;18.19;66.33;100547.91;4949671;28;119113;-72
2022/10/15 08:33:36;;;;;;;29.60;18.38;;;;;;;18.27;66.56;100550.78;4966653;28;119120;-73
2022/10/15 08:36:05;;;;;;;26.92;17.35;;;;;;;18.34;66.53;100551.16;4946556;28;124457;-72
2022/10/15 08:38:33;;;;;;;28.48;17.42;;;;;;;18.41;66.46;100550.53;4968894;28;124150;-73
2022/10/15 08:41:02;;;;;;;21.50;15.75;;;;;;;18.47;66.18;100547.31;4968830;28;118428;-72
2022/10/15 08:43:37;;;;;;;21.73;15.40;;;;;;;18.52;66.01;100540.75;4970442;28;119695;-72
2022/10/15 08:46:10;;;;;;;20.70;13.98;;;;;;;18.56;65.83;100539.50;4973994;28;123788;-73
2022/10/15 08:48:48;;;;;;;20.33;14.10;;;;;;;18.59;65.78;100528.50;4968281;28;124826;-73
2022/10/15 08:51:19;;;;;;;18.42;12.90;;;;;;;18.64;65.58;100520.94;4967564;28;120041;-73
2022/10/15 08:53:50;;;;;;;17.40;13.05;;;;;;;18.71;65.54;100532.84;4941585;28;119822;-73
2022/10/15 08:56:26;;;;;;;16.92;12.13;;;;;;;18.74;65.28;100532.59;4950767;28;123602;-73
2022/10/15 08:59:23;;;;;;;15.82;11.18;;;;;;;18.80;65.47;100521.38;4967537;28;124685;-73
2022/10/15 09:02:00;;;;;;;21.83;13.77;;;;;;;18.85;65.25;100516.47;4965355;28;97388;-73
2022/10/15 09:04:33;;;;;;;15.82;10.75;;;;;;;18.93;65.29;100523.00;4963258;28;119294;-73
2022/10/15 09:07:25;;;;;;;14.38;10.07;;;;;;;18.97;65.19;100516.41;4965492;28;124134;-73
2022/10/15 09:10:00;;;;;;;13.82;10.10;;;;;;;19.04;65.11;100517.56;4957825;28;124106;-73
2022/10/15 09:12:48;;;;;;;15.03;10.30;;;;;;;19.11;65.04;100513.38;4946554;28;119481;-74
2022/10/15 09:15:19;;;;;;;13.23;9.50;;;;;;;19.17;64.59;100507.47;4963690;28;119290;-73
2022/10/15 09:17:53;;;;;;;15.10;9.75;;;;;;;19.20;64.59;100511.72;4965964;28;123796;-73
2022/10/15 09:20:29;;;;;;;14.20;9.23;;;;;;;19.22;64.34;100505.22;4950510;28;123198;-72
2022/10/15 09:22:56;;;;;;;12.60;9.30;;;;;;;19.23;64.26;100496.22;4967943;28;118793;-72
2022/10/15 09:25:27;;;;;;;14.77;9.95;;;;;;;19.28;64.52;100503.00;4965789;28;119546;-73
2022/10/15 09:28:07;;;;;;;12.50;8.43;;;;;;;19.33;64.07;100495.41;4950152;28;124251;-73
2022/10/15 09:30:52;;;;;;;12.13;9.10;;;;;;;19.36;64.24;100500.50;4966338;28;123902;-73
2022/10/15 09:33:37;;;;;;;13.02;9.27;;;;;;;19.40;64.04;100496.53;4950056;28;119212;-73
2022/10/15 09:36:28;;;;;;;12.63;8.38;;;;;;;19.42;63.86;100494.56;4965020;28;119208;-73
2022/10/15 09:39:01;;;;;;;12.60;8.60;;;;;;;19.41;63.73;100492.88;4969326;28;123984;-73
2022/10/15 09:42:26;;;;;;;11.32;7.95;;;;;;;19.41;63.75;100488.34;4967923;28;123539;-73
2022/10/15 09:44:58;;;;;;;12.23;8.18;;;;;;;19.42;63.65;100483.81;4867412;28;120067;-73
2022/10/15 09:47:27;;;;;;;13.45;8.80;;;;;;;19.43;63.91;100485.53;4868337;28;119371;-72
2022/10/15 09:49:59;;;;;;;13.02;9.68;;;;;;;19.44;63.77;100481.88;4914627;28;123828;-73
2022/10/15 09:52:59;;;;;;;16.92;10.07;;;;;;;19.43;63.47;100480.16;4965622;28;124633;-73
2022/10/15 09:55:40;;;;;;;14.73;9.75;;;;;;;19.39;63.75;100473.38;4966485;28;118516;-73
2022/10/15 09:58:56;;;;;;;13.40;9.75;;;;;;;19.38;63.80;100471.66;4973901;28;119290;-73
2022/10/15 10:01:26;;;;;;;14.88;10.15;;;;;;;19.40;64.06;100469.69;4948745;28;123161;-73
2022/10/15 10:04:17;;;;;;;15.90;10.80;;;;;;;19.40;64.04;100475.06;4977522;28;124379;-72
2022/10/15 10:06:53;;;;;;;18.20;10.07;;;;;;;19.41;64.08;100471.41;4969595;28;118298;-73
2022/10/15 10:09:37;;;;;;;15.77;10.20;;;;;;;19.42;64.28;100465.03;4971597;28;119187;-73
2022/10/15 10:12:06;;;;;;;14.65;9.70;;;;;;;19.44;64.21;100463.09;4964051;28;124064;-73
2022/10/15 10:14:45;;;;;;;18.10;10.38;;;;;;;19.45;64.30;100472.81;4947610;28;123690;-72
2022/10/15 10:17:17;;;;;;;14.57;9.75;;;;;;;19.45;64.49;100472.81;4970363;28;120005;-72
2022/10/15 10:20:01;;;;;;;13.00;9.52;;;;;;;19.43;64.42;100464.06;4959922;28;118188;-73
2022/10/15 10:22:28;;;;;;;15.98;9.07;;;;;;;19.42;64.44;100462.34;4968520;28;124096;-73
2022/10/15 10:24:55;;;;;;;15.02;9.02;;;;;;;19.42;64.65;100467.72;4952254;28;122761;-73
2022/10/15 10:27:26;;;;;;;13.18;9.02;;;;;;;19.42;64.88;100462.34;4970405;28;119711;-72
2022/10/15 10:29:58;;;;;;;12.15;8.18;;;;;;;19.41;64.96;100456.13;4952319;28;118146;-72
2022/10/15 10:32:34;;;;;;;12.57;8.52;;;;;;;19.40;64.76;100458.94;4951555;28;124083;-72
2022/10/15 10:35:03;;;;;;;11.63;7.40;;;;;;;19.39;64.95;100457.25;4968528;28;123843;-73
2022/10/15 10:37:40;;;;;;;11.52;7.00;;;;;;;19.38;64.81;100456.41;4969029;28;120136;-73
2022/10/15 10:40:30;;;;;;;12.82;7.75;;;;;;;19.37;64.93;100465.44;4969888;28;120087;-72
2022/10/15 10:43:20;;;;;;;11.65;6.97;;;;;;;19.35;65.12;100450.47;4966283;28;124381;-72
2022/10/15 10:46:00;;;;;;;9.52;6.40;;;;;;;19.35;65.27;100453.16;4967309;28;123594;-72
2022/10/15 10:48:37;;;;;;;8.43;5.57;;;;;;;19.34;65.23;100449.59;4970682;28;119084;-73
2022/10/15 10:51:10;;;;;;;8.52;5.55;;;;;;;19.36;65.37;100457.53;4970621;28;118605;-72
2022/10/15 10:53:53;;;;;;;9.25;6.57;;;;;;;19.36;65.72;100455.69;4967224;28;123968;-72
2022/10/15 10:56:34;;;;;;;8.15;5.38;;;;;;;19.37;65.63;100453.88;4951140;28;124147;-72
2022/10/15 10:59:10;;;;;;;7.75;5.45;;;;;;;19.40;65.71;100461.63;4969899;28;119317;-72
2022/10/15 11:01:37;;;;;;;9.85;5.20;;;;;;;19.40;65.54;100451.75;4962033;28;118872;-72
2022/10/15 11:04:11;;;;;;;7.35;4.90;;;;;;;19.42;65.63;100460.53;4957574;28;123807;-72
2022/10/15 11:06:57;;;;;;;6.85;4.65;;;;;;;19.43;65.59;100451.47;4966799;28;123222;-72
2022/10/15 11:09:40;;;;;;;6.05;5.00;;;;;;;19.45;65.72;100448.66;4969760;28;120333;-73
2022/10/15 11:12:33;;;;;;;5.65;4.57;;;;;;;19.46;65.79;100442.31;4965528;28;118857;-73
2022/10/15 11:15:27;;;;;;;9.73;5.13;;;;;;;19.47;65.62;100449.38;4958041;28;124702;-73
2022/10/15 11:18:31;;;;;;;6.32;4.10;;;;;;;19.48;65.85;100440.34;4952396;28;123643;-73
2022/10/15 11:21:17;;;;;;;7.00;4.30;;;;;;;19.49;65.78;100431.28;4970056;28;119347;-72
2022/10/15 11:24:06;;;;;;;6.88;4.45;;;;;;;19.51;65.80;100429.28;4970690;28;118972;-72
2022/10/15 11:26:52;;;;;;;4.70;3.95;;;;;;;19.54;65.99;100434.41;4940346;28;124109;-72
2022/10/15 11:30:02;;;;;;;5.57;4.20;;;;;;;19.56;65.91;100427.06;4968690;28;124099;-72
2022/10/15 11:32:51;;;;;;;5.57;4.15;;;;;;;19.58;66.05;100434.97;4952664;28;120066;-72